Terminal Aerodrome Forecast
Issued by NWS

Home | Current Version | Previous Version | Text Only | Print | Product List | Glossary On
Versions: 1 2 3 4 5 6 7 8 9 10 11 12 13 14 15
476
FTUS42 KFFC 181743
TAFFTY
TAF
KFTY 181743Z 1818/1918 20010G18KT P6SM BKN035
     FM182300 23018G28KT P6SM VCSH OVC030
      TEMPO 1901/1905 29020G35KT SHRA OVC020
     FM190500 29015G22KT P6SM VCSH OVC035
     FM190800 32012KT P6SM BKN050
     FM191200 32012G22KT P6SM SCT250=

USA.gov is the U.S. government's official web portal to all federal, state and local government web resources and services.